Time;durP1;ratioP1;P1;durP2;ratioP2;P2;SDS_P1;SDS_P2;PMS_P1;PMS_P2;Temp;Humidity;BMP_temperature;BMP_pressure;BME280_temperature;BME280_humidity;BME280_pressure;Samples;Min_cycle;Max_cycle;Signal;HPM_P1;HPM_P2
2022/12/11 00:02:03;;;;;;;36.67;23.58;;;0.40;99.90;;;;;;5031339;28;20029;-52
2022/12/11 00:04:29;;;;;;;42.47;25.90;;;0.30;99.90;;;;;;5031524;28;20036;-51
2022/12/11 00:06:55;;;;;;;44.08;28.02;;;0.30;99.90;;;;;;5042649;27;20535;-50
2022/12/11 00:09:21;;;;;;;39.70;26.08;;;0.20;99.90;;;;;;5036493;27;20124;-52
2022/12/11 00:11:47;;;;;;;43.60;26.85;;;0.30;99.90;;;;;;5031148;28;20128;-54
2022/12/11 00:14:14;;;;;;;43.05;27.08;;;0.30;99.90;;;;;;5031344;28;20427;-51
2022/12/11 00:16:40;;;;;;;45.20;25.52;;;0.30;99.90;;;;;;5049082;28;20112;-52
2022/12/11 00:19:06;;;;;;;44.55;26.95;;;0.30;99.90;;;;;;5050429;28;20394;-53
2022/12/11 00:21:33;;;;;;;42.67;26.00;;;0.30;99.90;;;;;;5032940;28;20036;-50
2022/12/11 00:23:59;;;;;;;39.45;25.05;;;0.30;99.90;;;;;;5041353;28;20049;-51
2022/12/11 00:26:25;;;;;;;45.50;28.17;;;0.30;99.90;;;;;;5030530;28;20064;-51
2022/12/11 00:28:55;;;;;;;45.10;26.52;;;0.30;99.90;;;;;;5030074;28;20078;-49
2022/12/11 00:31:22;;;;;;;43.65;26.08;;;0.30;99.90;;;;;;5045533;28;20066;-51
2022/12/11 00:33:48;;;;;;;42.90;26.13;;;0.30;99.90;;;;;;5050163;28;20033;-52
2022/12/11 00:36:17;;;;;;;39.17;25.85;;;0.30;99.90;;;;;;5050260;28;20059;-52
2022/12/11 00:38:43;;;;;;;45.75;27.55;;;0.20;99.90;;;;;;5050714;27;20025;-52
2022/12/11 00:41:10;;;;;;;44.17;27.50;;;0.20;99.90;;;;;;5038823;28;20037;-50
2022/12/11 00:43:35;;;;;;;49.45;28.65;;;0.20;99.90;;;;;;5030874;28;20037;-52
2022/12/11 00:46:02;;;;;;;44.92;27.08;;;0.30;99.90;;;;;;5030743;28;20025;-53
2022/12/11 00:48:28;;;;;;;39.78;26.55;;;0.30;99.90;;;;;;5030786;28;20039;-55
2022/12/11 00:50:53;;;;;;;40.25;25.98;;;0.30;99.90;;;;;;5031335;28;20026;-55
2022/12/11 00:53:19;;;;;;;46.60;26.70;;;0.30;99.90;;;;;;5038643;28;20403;-51
2022/12/11 00:55:45;;;;;;;44.17;27.00;;;0.30;99.90;;;;;;5049929;27;20036;-51
2022/12/11 00:58:11;;;;;;;39.70;25.17;;;0.30;99.90;;;;;;5047636;28;20036;-52
2022/12/11 01:00:38;;;;;;;40.47;25.65;;;0.30;99.90;;;;;;5033286;28;20033;-52
2022/12/11 01:03:04;;;;;;;40.90;27.75;;;0.30;99.90;;;;;;5030391;28;20033;-49
2022/12/11 01:05:29;;;;;;;41.78;25.90;;;0.30;99.90;;;;;;5031778;28;20037;-52
2022/12/11 01:07:55;;;;;;;38.47;26.65;;;0.30;99.90;;;;;;5037565;28;20040;-52
2022/12/11 01:10:24;;;;;;;36.95;24.33;;;0.30;99.90;;;;;;5050153;28;20033;-52
2022/12/11 01:12:57;;;;;;;36.88;24.33;;;0.40;99.90;;;;;;5050349;28;20053;-51
2022/12/11 01:15:26;;;;;;;37.13;23.48;;;0.40;99.90;;;;;;5048640;28;20112;-54
2022/12/11 01:17:52;;;;;;;38.67;24.83;;;0.40;99.90;;;;;;5030478;28;20078;-50
2022/12/11 01:20:20;;;;;;;35.70;22.98;;;0.40;99.90;;;;;;5030149;28;20030;-53
2022/12/11 01:22:46;;;;;;;40.08;23.42;;;0.30;99.90;;;;;;5030114;28;20104;-51
2022/12/11 01:25:12;;;;;;;37.92;24.55;;;0.30;99.90;;;;;;5040092;27;20025;-52
2022/12/11 01:27:38;;;;;;;30.10;20.88;;;0.30;99.90;;;;;;5050013;28;20116;-53
2022/12/11 01:30:07;;;;;;;42.45;24.95;;;0.30;99.90;;;;;;5049623;28;20474;-50
2022/12/11 01:32:34;;;;;;;35.50;23.20;;;0.40;99.90;;;;;;5049829;28;20519;-52
2022/12/11 01:35:05;;;;;;;36.05;23.50;;;0.30;99.90;;;;;;5049264;28;20053;-53
2022/12/11 01:37:31;;;;;;;34.58;23.70;;;0.30;99.90;;;;;;5048247;28;20061;-52
2022/12/11 01:39:57;;;;;;;35.00;24.00;;;0.40;99.90;;;;;;5048190;28;20044;-52
2022/12/11 01:42:24;;;;;;;39.53;24.13;;;0.40;99.90;;;;;;5044286;28;20029;-53
2022/12/11 01:44:49;;;;;;;34.38;23.30;;;0.40;99.90;;;;;;5049631;28;20051;-54
2022/12/11 01:47:15;;;;;;;38.90;24.88;;;0.40;99.90;;;;;;5047683;28;20033;-53
2022/12/11 01:49:42;;;;;;;32.72;22.42;;;0.40;99.90;;;;;;5048244;28;20018;-53
2022/12/11 01:52:18;;;;;;;39.05;24.88;;;0.40;99.90;;;;;;5049544;28;20029;-52
2022/12/11 01:54:45;;;;;;;42.58;25.85;;;0.40;99.90;;;;;;5049452;28;20353;-55
2022/12/11 01:57:13;;;;;;;38.00;23.63;;;0.40;99.90;;;;;;5040873;28;20018;-52
2022/12/11 01:59:44;;;;;;;37.33;24.15;;;0.40;99.90;;;;;;5029522;28;20073;-55
2022/12/11 02:02:15;;;;;;;38.40;24.27;;;0.30;99.90;;;;;;5029398;28;20040;-49
2022/12/11 02:04:42;;;;;;;41.53;24.98;;;0.40;99.90;;;;;;5031612;28;20021;-52
2022/12/11 02:07:09;;;;;;;43.33;26.05;;;0.30;99.90;;;;;;5049252;27;20059;-54
2022/12/11 02:09:38;;;;;;;44.67;28.02;;;0.30;99.90;;;;;;5047479;28;20036;-55
2022/12/11 02:12:03;;;;;;;42.88;23.67;;;0.30;99.90;;;;;;5049218;28;20060;-51
2022/12/11 02:14:59;;;;;;;41.28;24.83;;;0.40;99.90;;;;;;5049199;28;20444;-51
2022/12/11 02:17:39;;;;;;;41.63;25.60;;;0.40;99.90;;;;;;5032319;28;20064;-51
2022/12/11 02:20:29;;;;;;;41.38;26.77;;;0.30;99.90;;;;;;5029133;28;20051;-53
2022/12/11 02:23:18;;;;;;;41.10;26.45;;;0.30;99.90;;;;;;5029250;28;20049;-53
2022/12/11 02:26:05;;;;;;;39.63;24.80;;;0.30;99.90;;;;;;5029319;28;20030;-53
2022/12/11 02:28:36;;;;;;;40.33;25.45;;;0.30;99.90;;;;;;5042661;28;20398;-52
2022/12/11 02:31:20;;;;;;;46.47;26.67;;;0.30;99.90;;;;;;5030213;28;20033;-53
2022/12/11 02:34:14;;;;;;;44.75;25.90;;;0.30;99.90;;;;;;5027889;28;20026;-54
2022/12/11 02:36:45;;;;;;;43.60;26.35;;;0.30;99.90;;;;;;5029912;28;20065;-51
2022/12/11 02:39:13;;;;;;;45.00;26.20;;;0.20;99.90;;;;;;5028864;28;20025;-54
2022/12/11 02:41:50;;;;;;;47.75;27.88;;;0.30;99.90;;;;;;5044250;27;20029;-52
2022/12/11 02:44:23;;;;;;;50.95;28.30;;;0.20;99.90;;;;;;5048940;28;20033;-50
2022/12/11 02:46:51;;;;;;;50.45;28.67;;;0.20;99.90;;;;;;5035997;27;20025;-52
2022/12/11 02:49:17;;;;;;;48.25;27.33;;;0.20;99.90;;;;;;5028878;28;20021;-52
2022/12/11 02:51:43;;;;;;;46.10;27.52;;;0.20;99.90;;;;;;5030066;28;20025;-51
2022/12/11 02:54:26;;;;;;;49.92;28.42;;;0.20;99.90;;;;;;5028834;28;20520;-54
2022/12/11 02:56:58;;;;;;;42.83;27.27;;;0.20;99.90;;;;;;5028999;28;20082;-54
2022/12/11 02:59:31;;;;;;;41.95;25.95;;;0.10;99.90;;;;;;5044982;28;20120;-54
2022/12/11 03:01:57;;;;;;;39.63;24.83;;;0.10;99.90;;;;;;5029664;28;20510;-53
2022/12/11 03:04:23;;;;;;;37.45;22.25;;;0.00;99.90;;;;;;5028885;28;20117;-52
2022/12/11 03:06:53;;;;;;;40.40;23.83;;;0.00;99.90;;;;;;5028731;28;20030;-51
2022/12/11 03:09:19;;;;;;;35.92;21.92;;;0.00;99.90;;;;;;5028611;28;20025;-51
2022/12/11 03:11:44;;;;;;;36.60;23.30;;;-0.10;99.90;;;;;;5048192;28;20484;-50
2022/12/11 03:14:10;;;;;;;32.10;21.10;;;-0.10;99.90;;;;;;5049617;28;20029;-51
2022/12/11 03:16:41;;;;;;;33.63;20.67;;;0.00;99.90;;;;;;5044682;28;20037;-54
2022/12/11 03:19:12;;;;;;;31.85;20.52;;;-0.10;99.90;;;;;;5035131;28;20032;-53
2022/12/11 03:21:46;;;;;;;31.13;18.67;;;-0.10;99.90;;;;;;5035257;28;20033;-50
2022/12/11 03:24:20;;;;;;;33.53;19.77;;;-0.10;99.90;;;;;;5033777;28;20026;-50
2022/12/11 03:26:54;;;;;;;28.77;18.98;;;-0.10;99.90;;;;;;5034990;28;20028;-50
2022/12/11 03:29:25;;;;;;;28.90;18.45;;;-0.10;99.90;;;;;;5035025;28;20445;-50
2022/12/11 03:32:08;;;;;;;31.17;17.73;;;-0.20;99.90;;;;;;5049032;28;20036;-50
2022/12/11 03:34:47;;;;;;;26.85;16.63;;;-0.20;99.90;;;;;;5053390;28;20507;-54
2022/12/11 03:37:15;;;;;;;25.90;16.98;;;-0.30;99.90;;;;;;5052963;28;20086;-52
2022/12/11 03:39:48;;;;;;;25.63;17.13;;;-0.30;99.90;;;;;;5049891;27;20033;-51
2022/12/11 03:42:16;;;;;;;27.30;17.25;;;-0.30;99.90;;;;;;5034672;28;20119;-50
2022/12/11 03:44:48;;;;;;;24.15;15.80;;;-0.30;99.90;;;;;;5035037;28;20606;-50
2022/12/11 03:47:17;;;;;;;25.20;17.50;;;-0.40;99.90;;;;;;5035071;28;20026;-52
2022/12/11 03:49:44;;;;;;;25.80;18.35;;;-0.40;99.90;;;;;;5036104;28;20021;-53
2022/12/11 03:52:12;;;;;;;25.10;16.33;;;-0.40;99.90;;;;;;5034535;28;20418;-52
2022/12/11 03:54:40;;;;;;;26.73;17.98;;;-0.40;99.90;;;;;;5034756;28;20035;-51
2022/12/11 03:57:08;;;;;;;24.98;16.77;;;-0.30;99.90;;;;;;5050868;28;20633;-50
2022/12/11 03:59:34;;;;;;;24.55;16.88;;;-0.30;99.90;;;;;;5052546;28;20033;-55
2022/12/11 04:01:59;;;;;;;26.90;17.98;;;-0.30;99.90;;;;;;5044604;28;20071;-51
2022/12/11 04:04:25;;;;;;;26.85;17.30;;;-0.30;99.90;;;;;;5043968;28;20048;-52
2022/12/11 04:06:51;;;;;;;29.90;18.55;;;-0.30;99.90;;;;;;5034611;28;20041;-55
2022/12/11 04:09:16;;;;;;;28.60;17.33;;;-0.30;99.90;;;;;;5034482;28;20033;-53
2022/12/11 04:11:42;;;;;;;24.35;16.73;;;-0.40;99.90;;;;;;5034378;28;20057;-54
2022/12/11 04:16:57;;;;;;;27.15;17.13;;;-0.40;99.90;;;;;;5045999;28;20075;-52
2022/12/11 04:24:59;;;;;;;28.65;18.05;;;-0.50;99.90;;;;;;5022418;28;20041;-49
2022/12/11 04:30:14;;;;;;;27.13;17.00;;;-0.60;99.90;;;;;;5050979;28;20486;-52
2022/12/11 04:32:40;;;;;;;26.63;17.23;;;-0.60;99.90;;;;;;5050705;27;20399;-52
2022/12/11 04:35:07;;;;;;;26.63;17.77;;;-0.60;99.90;;;;;;5046177;28;20033;-50
2022/12/11 04:37:33;;;;;;;25.02;15.75;;;-0.60;99.90;;;;;;5046520;28;20021;-50
2022/12/11 04:39:59;;;;;;;27.25;18.15;;;-0.60;99.90;;;;;;5046709;27;20028;-54
2022/12/11 04:42:24;;;;;;;27.15;16.10;;;-0.60;99.90;;;;;;5030822;28;20029;-54
2022/12/11 04:44:50;;;;;;;23.38;16.17;;;-0.60;99.90;;;;;;5031005;28;20036;-52
2022/12/11 04:47:16;;;;;;;28.50;19.08;;;-0.60;99.90;;;;;;5045235;28;20460;-50
2022/12/11 04:49:42;;;;;;;28.60;18.00;;;-0.60;99.90;;;;;;5049033;28;20045;-51
2022/12/11 04:52:08;;;;;;;28.73;17.90;;;-0.60;99.90;;;;;;5050256;28;20041;-52
2022/12/11 04:54:34;;;;;;;25.90;18.45;;;-0.70;99.90;;;;;;5050028;28;20051;-52
2022/12/11 04:56:59;;;;;;;26.30;18.05;;;-0.80;99.90;;;;;;5050410;28;20037;-52
2022/12/11 04:59:25;;;;;;;27.13;17.65;;;-0.80;99.90;;;;;;5050365;28;20037;-53
2022/12/11 05:01:50;;;;;;;29.15;18.25;;;-0.70;99.90;;;;;;5030610;28;20405;-54
2022/12/11 05:04:16;;;;;;;32.78;19.40;;;-0.70;99.90;;;;;;5029330;28;20057;-50
2022/12/11 05:06:42;;;;;;;29.80;19.50;;;-0.70;99.90;;;;;;5032666;28;20371;-52
2022/12/11 05:09:11;;;;;;;32.30;17.80;;;-0.80;99.90;;;;;;5050128;28;20472;-49
2022/12/11 05:11:37;;;;;;;33.85;20.80;;;-0.70;99.90;;;;;;5049859;28;20522;-51
2022/12/11 05:14:03;;;;;;;30.33;18.33;;;-0.80;99.90;;;;;;5050423;27;20112;-50
2022/12/11 05:16:28;;;;;;;32.88;19.40;;;-0.80;99.90;;;;;;5041967;28;20101;-51
2022/12/11 05:18:54;;;;;;;30.60;19.83;;;-0.80;99.90;;;;;;5029098;28;20025;-54
2022/12/11 05:21:20;;;;;;;34.50;20.80;;;-0.80;99.90;;;;;;5044602;28;20032;-53
2022/12/11 05:23:45;;;;;;;32.42;19.45;;;-0.80;99.90;;;;;;5050151;28;20541;-54
2022/12/11 05:26:14;;;;;;;31.42;18.83;;;-0.80;99.90;;;;;;5035409;28;20037;-51
2022/12/11 05:28:40;;;;;;;32.47;18.67;;;-0.90;99.90;;;;;;5029507;28;20013;-54
2022/12/11 05:31:11;;;;;;;24.60;16.80;;;-0.90;99.90;;;;;;5029139;28;20558;-51
2022/12/11 05:33:36;;;;;;;29.02;18.50;;;-0.80;99.90;;;;;;5029290;28;20033;-49
2022/12/11 05:36:02;;;;;;;31.42;18.35;;;-0.90;99.90;;;;;;5029460;28;20033;-49
2022/12/11 05:38:28;;;;;;;28.00;16.88;;;-0.90;99.90;;;;;;5035797;28;20123;-51
2022/12/11 05:41:05;;;;;;;32.40;20.23;;;-0.90;99.90;;;;;;5047283;28;20104;-54
2022/12/11 05:43:33;;;;;;;31.92;18.50;;;-0.90;99.90;;;;;;5049376;27;20024;-55
2022/12/11 05:46:21;;;;;;;28.38;17.58;;;-0.90;99.90;;;;;;5049125;27;20591;-52
2022/12/11 05:48:50;;;;;;;28.67;18.70;;;-0.80;99.90;;;;;;5049754;28;20029;-54
2022/12/11 05:51:16;;;;;;;30.70;20.45;;;-0.90;99.90;;;;;;5047894;27;20043;-54
2022/12/11 05:53:43;;;;;;;30.23;17.52;;;-0.80;99.90;;;;;;5049664;28;20059;-54
2022/12/11 05:56:14;;;;;;;28.38;18.33;;;-0.90;99.90;;;;;;5049154;27;20032;-53
2022/12/11 05:58:41;;;;;;;27.98;17.10;;;-0.80;99.90;;;;;;5049380;27;20029;-54
2022/12/11 06:01:13;;;;;;;28.73;18.15;;;-0.80;99.90;;;;;;5034476;28;20477;-53
2022/12/11 06:03:39;;;;;;;34.22;21.63;;;-0.80;99.90;;;;;;5048794;27;20432;-52
2022/12/11 06:06:05;;;;;;;29.40;17.63;;;-0.90;99.90;;;;;;5034901;28;20082;-51
2022/12/11 06:08:31;;;;;;;26.08;17.67;;;-0.90;99.90;;;;;;5037416;27;20047;-52
2022/12/11 06:10:57;;;;;;;26.90;16.90;;;-1.00;99.90;;;;;;5037004;28;20033;-52
2022/12/11 06:13:23;;;;;;;23.20;15.77;;;-0.90;99.90;;;;;;5049253;27;20058;-55
2022/12/11 06:15:48;;;;;;;25.48;16.25;;;-1.00;99.90;;;;;;5029474;28;20034;-53
2022/12/11 06:18:14;;;;;;;22.55;15.90;;;-1.00;99.90;;;;;;5029487;28;20037;-50
2022/12/11 06:20:40;;;;;;;25.55;15.18;;;-1.10;99.90;;;;;;5029326;28;20029;-54
2022/12/11 06:23:06;;;;;;;29.48;16.52;;;-1.10;99.90;;;;;;5027806;28;20028;-51
2022/12/11 06:25:32;;;;;;;25.08;14.60;;;-1.10;99.90;;;;;;5037688;28;20017;-51
2022/12/11 06:27:57;;;;;;;26.27;16.25;;;-1.20;99.90;;;;;;5048482;27;20074;-52
2022/12/11 06:30:23;;;;;;;22.90;15.20;;;-1.10;99.90;;;;;;5041448;27;20022;-50
2022/12/11 06:32:48;;;;;;;21.35;14.35;;;-1.10;99.90;;;;;;5029280;28;20777;-51
2022/12/11 06:35:14;;;;;;;21.63;14.48;;;-1.20;99.90;;;;;;5028901;28;20025;-51
2022/12/11 06:37:40;;;;;;;23.80;14.38;;;-1.20;99.90;;;;;;5046933;28;20065;-50
2022/12/11 06:40:08;;;;;;;21.02;14.00;;;-1.10;99.90;;;;;;5032553;28;20059;-52
2022/12/11 06:42:34;;;;;;;23.27;14.18;;;-1.10;99.90;;;;;;5028987;28;20028;-54
2022/12/11 06:45:00;;;;;;;22.77;14.82;;;-1.20;99.90;;;;;;5029082;28;20025;-54
2022/12/11 06:47:27;;;;;;;22.15;14.38;;;-1.30;99.90;;;;;;5028997;28;20049;-52
2022/12/11 06:49:53;;;;;;;22.95;15.48;;;-1.30;99.90;;;;;;5028436;28;20022;-50
2022/12/11 06:52:21;;;;;;;20.17;14.15;;;-1.30;99.90;;;;;;5029910;28;20044;-54
2022/12/11 06:54:46;;;;;;;21.40;14.55;;;-1.40;99.90;;;;;;5030996;28;20030;-49
2022/12/11 06:57:12;;;;;;;25.52;14.88;;;-1.40;99.90;;;;;;5048076;28;20040;-53
2022/12/11 06:59:38;;;;;;;25.33;14.60;;;-1.40;99.90;;;;;;5034482;28;20034;-51
2022/12/11 07:02:03;;;;;;;18.85;12.90;;;-1.50;99.90;;;;;;5040698;28;20037;-53
2022/12/11 07:04:29;;;;;;;23.48;14.07;;;-1.50;99.90;;;;;;5028700;28;20109;-54
2022/12/11 07:06:56;;;;;;;25.08;14.23;;;-1.50;99.90;;;;;;5034700;28;20119;-50
2022/12/11 07:09:22;;;;;;;18.98;13.50;;;-1.40;99.90;;;;;;5048468;28;20029;-53
2022/12/11 07:11:52;;;;;;;24.27;15.77;;;-1.50;99.90;;;;;;5048546;28;20053;-52
2022/12/11 07:14:19;;;;;;;24.08;15.85;;;-1.50;99.90;;;;;;5048310;27;20033;-52
2022/12/11 07:16:44;;;;;;;25.13;16.08;;;-1.50;99.90;;;;;;5043618;28;20110;-52
2022/12/11 07:19:10;;;;;;;24.67;16.67;;;-1.50;99.90;;;;;;5028530;28;20057;-52
2022/12/11 07:21:36;;;;;;;25.20;16.58;;;-1.50;99.90;;;;;;5028357;28;20030;-54
2022/12/11 07:24:01;;;;;;;27.02;18.52;;;-1.50;99.90;;;;;;5028517;28;20078;-56
2022/12/11 07:26:27;;;;;;;39.13;23.92;;;-1.60;99.90;;;;;;5043788;28;20033;-50
2022/12/11 07:28:57;;;;;;;26.98;17.75;;;-1.60;99.90;;;;;;5048386;28;20021;-53
2022/12/11 07:31:24;;;;;;;24.42;15.20;;;-1.50;99.90;;;;;;5048102;27;20416;-53
2022/12/11 07:34:02;;;;;;;21.38;15.13;;;-1.60;99.90;;;;;;5047883;28;20122;-55
2022/12/11 07:36:29;;;;;;;47.28;22.17;;;-1.60;99.90;;;;;;5047995;28;20405;-51
2022/12/11 07:38:55;;;;;;;22.60;15.65;;;-1.70;99.90;;;;;;5047914;28;20607;-53
2022/12/11 07:41:22;;;;;;;22.55;14.98;;;-1.70;99.90;;;;;;5038605;28;20083;-54
2022/12/11 07:43:48;;;;;;;24.88;14.57;;;-1.80;99.90;;;;;;5027630;28;20018;-53
2022/12/11 07:46:19;;;;;;;20.55;13.90;;;-1.70;99.90;;;;;;5029714;28;20135;-51
2022/12/11 07:48:46;;;;;;;17.60;13.55;;;-1.70;99.90;;;;;;5027915;28;20410;-53
2022/12/11 07:51:13;;;;;;;19.00;13.30;;;-1.60;99.90;;;;;;5029233;28;20026;-53
2022/12/11 07:53:39;;;;;;;22.73;14.00;;;-1.60;99.90;;;;;;5036313;28;20070;-51
2022/12/11 07:56:06;;;;;;;19.15;14.02;;;-1.60;99.90;;;;;;5047136;28;20033;-54
2022/12/11 07:58:32;;;;;;;18.67;14.32;;;-1.60;99.90;;;;;;5028156;28;20041;-53
2022/12/11 08:00:57;;;;;;;24.88;15.55;;;-1.60;99.90;;;;;;5028634;28;20029;-54
2022/12/11 08:03:23;;;;;;;24.35;15.40;;;-1.50;99.90;;;;;;5043668;27;20069;-51
2022/12/11 08:05:51;;;;;;;23.67;15.27;;;-1.50;99.90;;;;;;5051298;28;20137;-51
2022/12/11 08:08:18;;;;;;;23.70;16.17;;;-1.50;99.90;;;;;;5050786;28;20029;-52
2022/12/11 08:10:44;;;;;;;20.95;13.60;;;-1.50;99.90;;;;;;5049349;28;20066;-53
2022/12/11 08:13:10;;;;;;;21.75;15.50;;;-1.40;99.90;;;;;;5036015;28;20418;-52
2022/12/11 08:15:36;;;;;;;22.50;14.68;;;-1.30;99.90;;;;;;5050659;27;20037;-52
2022/12/11 08:18:02;;;;;;;22.77;14.85;;;-1.30;99.90;;;;;;5050511;28;20029;-50
2022/12/11 08:20:29;;;;;;;29.35;17.35;;;-1.20;99.90;;;;;;5050922;27;20031;-55
2022/12/11 08:22:55;;;;;;;26.85;15.20;;;-1.20;99.90;;;;;;5035238;28;20034;-53
2022/12/11 08:25:21;;;;;;;25.60;15.45;;;-1.10;99.90;;;;;;5031168;28;20021;-52
2022/12/11 08:27:46;;;;;;;28.05;16.58;;;-1.00;99.90;;;;;;5045404;28;20037;-53
2022/12/11 08:30:12;;;;;;;24.55;16.05;;;-1.00;99.90;;;;;;5048660;27;20086;-52
2022/12/11 08:32:38;;;;;;;22.27;15.23;;;-1.00;99.90;;;;;;5031145;28;20026;-55
2022/12/11 08:35:04;;;;;;;22.75;15.48;;;-0.90;99.90;;;;;;5030722;28;20018;-50
2022/12/11 08:37:30;;;;;;;24.08;15.98;;;-0.80;99.90;;;;;;5031151;28;20029;-54
2022/12/11 08:39:55;;;;;;;22.17;14.82;;;-0.70;99.90;;;;;;5042469;27;20441;-55
2022/12/11 08:42:21;;;;;;;23.65;15.85;;;-0.70;99.90;;;;;;5059108;27;20113;-52
2022/12/11 08:44:47;;;;;;;21.27;15.13;;;-0.70;99.90;;;;;;5074189;27;20056;-53
2022/12/11 08:47:14;;;;;;;22.90;15.40;;;-0.50;99.90;;;;;;5131954;27;20053;-53
2022/12/11 08:49:40;;;;;;;25.42;14.88;;;-0.40;99.90;;;;;;5132639;27;20047;-52
2022/12/11 08:52:05;;;;;;;21.83;15.00;;;-0.30;99.90;;;;;;5065439;27;20024;-51
2022/12/11 08:54:31;;;;;;;24.33;13.77;;;-0.20;99.90;;;;;;5108511;27;20027;-52
2022/12/11 08:56:57;;;;;;;25.48;16.50;;;-0.10;99.90;;;;;;5076287;27;20108;-50
2022/12/11 08:59:24;;;;;;;24.05;15.68;;;-0.10;99.90;;;;;;5090196;27;20081;-53
2022/12/11 09:01:50;;;;;;;25.55;16.85;;;0.00;99.90;;;;;;5101489;27;20031;-53
2022/12/11 09:04:16;;;;;;;22.58;15.43;;;0.10;99.90;;;;;;5054775;27;20040;-53
2022/12/11 09:06:41;;;;;;;28.38;15.05;;;0.20;99.90;;;;;;5043453;28;20013;-53
2022/12/11 09:09:07;;;;;;;23.05;15.70;;;0.30;99.90;;;;;;5038192;27;20025;-51
2022/12/11 09:11:35;;;;;;;21.55;14.60;;;0.40;99.90;;;;;;5043013;28;20708;-50
2022/12/11 09:14:03;;;;;;;22.25;14.43;;;0.40;99.90;;;;;;5031541;27;20068;-52
2022/12/11 09:16:29;;;;;;;21.48;14.85;;;0.40;99.90;;;;;;5041037;27;20021;-52
2022/12/11 09:18:56;;;;;;;25.10;15.75;;;0.60;99.90;;;;;;5051937;27;20557;-52
2022/12/11 09:21:25;;;;;;;20.65;13.68;;;0.50;99.90;;;;;;5135364;27;20047;-53
2022/12/11 09:23:59;;;;;;;23.23;14.90;;;0.50;99.90;;;;;;5033148;27;20027;-53
2022/12/11 09:26:26;;;;;;;21.92;14.35;;;0.50;99.90;;;;;;5030168;28;20029;-54
2022/12/11 09:28:52;;;;;;;22.35;14.07;;;0.70;99.90;;;;;;5042300;27;20648;-51
2022/12/11 09:31:27;;;;;;;27.10;15.05;;;0.70;99.90;;;;;;5037583;28;20029;-52
2022/12/11 09:33:55;;;;;;;21.50;15.40;;;0.40;99.90;;;;;;5033307;27;20095;-54
2022/12/11 09:36:22;;;;;;;25.15;14.75;;;0.20;99.90;;;;;;5049314;28;20437;-54
2022/12/11 09:38:48;;;;;;;24.10;15.48;;;0.30;99.90;;;;;;5050431;27;20517;-56
2022/12/11 09:41:20;;;;;;;24.77;15.90;;;0.30;99.90;;;;;;5048690;28;20037;-50
2022/12/11 09:43:56;;;;;;;23.05;15.20;;;0.30;99.90;;;;;;5047528;27;20025;-54
2022/12/11 09:46:23;;;;;;;23.88;15.68;;;0.40;99.90;;;;;;5029869;28;20471;-55
2022/12/11 09:48:49;;;;;;;23.55;15.38;;;0.30;99.90;;;;;;5032345;27;20053;-54
2022/12/11 09:51:28;;;;;;;27.88;15.88;;;0.40;99.90;;;;;;5033629;28;20124;-51
2022/12/11 09:53:58;;;;;;;23.10;16.38;;;0.20;99.90;;;;;;5031648;27;20033;-52
2022/12/11 09:56:38;;;;;;;22.30;14.75;;;0.20;99.90;;;;;;5047915;28;20025;-52
2022/12/11 09:59:09;;;;;;;23.17;15.80;;;0.20;99.90;;;;;;5053865;27;20032;-55
2022/12/11 10:01:42;;;;;;;22.20;15.55;;;0.00;99.90;;;;;;5041419;28;20030;-53
2022/12/11 10:04:14;;;;;;;24.33;16.02;;;0.10;99.90;;;;;;5036402;27;20032;-54
2022/12/11 10:06:57;;;;;;;21.10;14.27;;;-0.10;99.90;;;;;;5044897;28;20026;-50
2022/12/11 10:09:42;;;;;;;22.63;15.18;;;0.00;99.90;;;;;;5043242;27;20051;-50
2022/12/11 10:12:30;;;;;;;25.73;14.93;;;-0.10;99.90;;;;;;5048887;28;20404;-52
2022/12/11 10:15:10;;;;;;;29.20;17.77;;;-0.10;99.90;;;;;;5049236;28;20100;-53
2022/12/11 10:17:38;;;;;;;23.17;14.95;;;-0.10;99.90;;;;;;5049100;27;20112;-51
2022/12/11 10:20:21;;;;;;;31.67;19.85;;;0.00;99.90;;;;;;5048903;28;20453;-53
2022/12/11 10:22:49;;;;;;;32.90;20.33;;;0.20;99.90;;;;;;5049083;27;20112;-54
2022/12/11 10:25:40;;;;;;;26.65;17.15;;;0.40;99.90;;;;;;5039506;28;20029;-52
2022/12/11 10:28:17;;;;;;;21.98;14.15;;;0.90;99.90;;;;;;5029259;28;20021;-54
2022/12/11 10:30:53;;;;;;;22.88;14.85;;;1.10;99.90;;;;;;5029184;28;20037;-55
2022/12/11 10:33:51;;;;;;;22.25;14.60;;;1.40;99.90;;;;;;5029056;28;20116;-53
2022/12/11 10:36:25;;;;;;;26.77;15.50;;;1.70;99.90;;;;;;5004484;28;20548;-53
2022/12/11 10:38:51;;;;;;;19.35;13.93;;;1.50;99.90;;;;;;5036947;28;20034;-53
2022/12/11 10:41:20;;;;;;;25.42;15.55;;;1.30;99.90;;;;;;5036582;28;20035;-53
2022/12/11 10:43:48;;;;;;;26.95;17.02;;;0.70;99.90;;;;;;5020818;28;20404;-50
2022/12/11 10:46:36;;;;;;;25.10;15.95;;;0.30;99.90;;;;;;5027060;28;20113;-53
2022/12/11 10:49:01;;;;;;;15.43;10.68;;;0.00;99.90;;;;;;5019379;28;20073;-51
2022/12/11 10:51:30;;;;;;;15.23;10.70;;;-0.50;99.90;;;;;;5020300;28;20029;-53
2022/12/11 10:54:02;;;;;;;182.68;72.00;;;-0.80;99.90;;;;;;5017340;28;20162;-53
2022/12/11 10:56:30;;;;;;;111.38;43.85;;;-0.90;99.90;;;;;;5016689;28;20030;-54
2022/12/11 10:58:57;;;;;;;256.20;84.47;;;-0.70;99.90;;;;;;5016872;28;20034;-49
2022/12/11 11:01:30;;;;;;;585.83;260.05;;;-0.70;99.90;;;;;;5018335;28;20033;-54
2022/12/11 11:04:20;;;;;;;29.52;17.42;;;-0.60;99.90;;;;;;5017498;28;20053;-53
2022/12/11 11:06:45;;;;;;;25.30;11.93;;;-0.40;99.90;;;;;;5017980;28;20026;-56
2022/12/11 11:09:34;;;;;;;14.07;9.32;;;-0.60;99.90;;;;;;5018640;28;20377;-53
2022/12/11 11:12:00;;;;;;;11.90;8.57;;;-0.70;99.90;;;;;;5018611;28;20050;-53
2022/12/11 11:14:25;;;;;;;11.30;8.93;;;-0.70;99.90;;;;;;5017737;28;20466;-50
2022/12/11 11:16:55;;;;;;;13.15;9.70;;;-0.70;99.90;;;;;;5018106;28;20040;-52
2022/12/11 11:19:29;;;;;;;18.60;13.13;;;-0.50;99.90;;;;;;5017398;28;20456;-54
2022/12/11 11:21:59;;;;;;;14.63;9.52;;;-0.30;99.90;;;;;;5018867;28;20040;-51
2022/12/11 11:24:36;;;;;;;10.85;8.13;;;-0.20;99.90;;;;;;5016297;28;20033;-54
2022/12/11 11:27:10;;;;;;;10.13;8.38;;;-0.20;99.90;;;;;;5018381;28;20059;-54
2022/12/11 11:29:36;;;;;;;12.73;8.73;;;-0.10;99.90;;;;;;5018769;27;20148;-50
2022/12/11 11:32:38;;;;;;;10.55;8.35;;;-0.10;99.90;;;;;;5017517;28;20025;-51
2022/12/11 11:35:12;;;;;;;9.98;7.05;;;-0.20;99.90;;;;;;5033921;28;20460;-50
2022/12/11 11:37:45;;;;;;;10.35;8.38;;;-0.10;99.90;;;;;;5030985;28;20033;-54
2022/12/11 11:40:21;;;;;;;17.48;10.77;;;0.10;99.90;;;;;;5031287;28;20083;-51
2022/12/11 11:43:14;;;;;;;27.75;10.73;;;0.60;99.90;;;;;;5031260;28;20614;-52
2022/12/11 11:45:48;;;;;;;18.75;12.98;;;0.70;99.90;;;;;;5032262;28;20018;-52
2022/12/11 11:48:37;;;;;;;14.40;10.77;;;1.30;99.90;;;;;;5051285;28;20021;-51
2022/12/11 11:51:22;;;;;;;15.30;11.02;;;1.50;99.90;;;;;;5048157;27;20037;-50
2022/12/11 11:53:52;;;;;;;12.15;9.43;;;1.80;99.90;;;;;;5051260;28;20036;-52
2022/12/11 11:56:36;;;;;;;15.05;11.43;;;2.10;99.90;;;;;;5051348;27;20674;-54
2022/12/11 11:59:16;;;;;;;15.20;11.25;;;1.90;99.90;;;;;;5064990;27;20161;-51
2022/12/11 12:01:42;;;;;;;17.23;12.02;;;2.00;99.90;;;;;;5051292;27;20033;-52
2022/12/11 12:04:09;;;;;;;11.80;10.13;;;2.00;99.90;;;;;;5050945;28;20025;-51
2022/12/11 12:07:09;;;;;;;13.48;9.93;;;1.80;99.90;;;;;;5051548;27;20029;-52
2022/12/11 12:10:08;;;;;;;16.42;10.73;;;1.70;99.90;;;;;;5050315;28;20020;-53
2022/12/11 12:13:32;;;;;;;16.85;11.32;;;1.60;99.90;;;;;;5046980;27;20044;-53
2022/12/11 12:16:00;;;;;;;17.17;11.57;;;1.40;99.90;;;;;;5026190;28;20085;-52
2022/12/11 12:18:53;;;;;;;13.23;10.93;;;1.20;99.90;;;;;;5048209;28;20085;-51
2022/12/11 12:21:34;;;;;;;16.02;12.18;;;1.20;99.90;;;;;;5049312;27;20029;-53
2022/12/11 12:24:41;;;;;;;19.98;13.52;;;0.90;99.90;;;;;;5047788;28;20021;-54
2022/12/11 12:27:16;;;;;;;15.82;11.82;;;0.70;99.90;;;;;;5046179;27;20341;-55
2022/12/11 12:30:14;;;;;;;19.88;13.35;;;0.90;99.90;;;;;;5047933;28;20390;-49
2022/12/11 12:32:54;;;;;;;20.77;14.25;;;1.00;99.90;;;;;;5048353;27;20429;-54
2022/12/11 12:35:26;;;;;;;23.73;16.67;;;1.00;99.90;;;;;;5046745;28;20113;-50
2022/12/11 12:38:13;;;;;;;21.13;14.95;;;0.50;99.90;;;;;;5042346;27;20501;-51
2022/12/11 12:40:56;;;;;;;23.58;15.82;;;0.60;99.90;;;;;;5017181;28;20116;-54
2022/12/11 12:43:43;;;;;;;20.05;15.18;;;0.50;99.90;;;;;;5015290;28;20292;-52
2022/12/11 12:46:33;;;;;;;22.15;14.75;;;0.50;99.90;;;;;;5017906;27;20057;-53
2022/12/11 12:49:00;;;;;;;21.92;15.98;;;0.40;99.90;;;;;;5016795;28;20025;-52
2022/12/11 12:51:26;;;;;;;22.02;15.15;;;0.20;99.90;;;;;;5018792;27;20273;-53
2022/12/11 12:53:56;;;;;;;21.40;15.10;;;0.20;99.90;;;;;;5018314;28;20033;-52
2022/12/11 12:56:23;;;;;;;42.53;22.48;;;0.40;99.90;;;;;;5020164;27;21810;-54
2022/12/11 12:58:49;;;;;;;20.95;14.60;;;0.40;99.90;;;;;;5019026;28;20033;-51
2022/12/11 13:01:14;;;;;;;20.92;14.32;;;0.40;99.90;;;;;;5030107;27;20059;-52